Time;durP1;ratioP1;P1;durP2;ratioP2;P2;SDS_P1;SDS_P2;PMS_P1;PMS_P2;Temp;Humidity;BMP_temperature;BMP_pressure;BME280_temperature;BME280_humidity;BME280_pressure;Samples;Min_cycle;Max_cycle;Signal;HPM_P1;HPM_P2
2023/09/15 00:02:36;;;;;;;5.18;2.38;;;;;;;;;;6116491;28;20054;-88
2023/09/15 00:05:39;;;;;;;3.10;1.73;;;;;;;;;;6140099;28;20180;-88
2023/09/15 00:08:44;;;;;;;3.65;1.73;;;;;;;;;;6118304;28;20055;-88
2023/09/15 00:11:49;;;;;;;3.70;1.80;;;;;;;;;;6117343;28;20437;-89
2023/09/15 00:14:51;;;;;;;2.90;2.00;;;;;;;;;;6106802;28;20490;-87
2023/09/15 00:17:56;;;;;;;3.87;2.43;;;;;;;;;;6144281;28;20055;-88
2023/09/15 00:20:59;;;;;;;3.65;2.25;;;;;;;;;;6117669;28;20850;-87
2023/09/15 00:24:01;;;;;;;4.28;2.30;;;;;;;;;;6117612;28;20102;-89
2023/09/15 00:27:04;;;;;;;3.53;2.22;;;;;;;;;;6158541;28;20057;-89
2023/09/15 00:30:08;;;;;;;3.10;1.90;;;;;;;;;;6155894;28;20039;-88
2023/09/15 00:33:12;;;;;;;3.22;2.10;;;;;;;;;;6131546;28;20043;-91
2023/09/15 00:36:13;;;;;;;3.92;2.13;;;;;;;;;;6136200;28;20056;-89
2023/09/15 00:39:15;;;;;;;2.42;1.83;;;;;;;;;;6145114;28;20054;-88
2023/09/15 00:42:19;;;;;;;4.13;2.00;;;;;;;;;;6118693;28;20044;-88
2023/09/15 00:45:22;;;;;;;5.45;2.72;;;;;;;;;;6127368;28;20057;-87
2023/09/15 00:48:25;;;;;;;3.88;2.20;;;;;;;;;;6140564;28;20091;-89
2023/09/15 00:51:30;;;;;;;5.22;1.88;;;;;;;;;;6144273;28;20043;-88
2023/09/15 00:54:32;;;;;;;4.10;2.13;;;;;;;;;;6119501;28;20055;-87
2023/09/15 00:57:37;;;;;;;3.05;1.73;;;;;;;;;;6142892;28;20107;-88
2023/09/15 01:00:46;;;;;;;4.13;1.85;;;;;;;;;;6156366;28;20067;-88
2023/09/15 01:03:48;;;;;;;3.20;2.00;;;;;;;;;;6148484;28;20024;-89
2023/09/15 01:06:51;;;;;;;3.13;1.90;;;;;;;;;;6143718;28;20034;-89
2023/09/15 01:09:53;;;;;;;2.60;1.70;;;;;;;;;;6150363;28;20034;-90
2023/09/15 01:12:57;;;;;;;3.17;2.13;;;;;;;;;;6162795;28;20082;-87
2023/09/15 01:16:18;;;;;;;4.03;1.90;;;;;;;;;;6151850;28;20051;-89
2023/09/15 01:19:53;;;;;;;3.20;1.80;;;;;;;;;;6173109;28;20050;-88
2023/09/15 01:23:33;;;;;;;3.50;2.00;;;;;;;;;;6177065;28;20038;-88
2023/09/15 01:26:37;;;;;;;4.63;2.00;;;;;;;;;;6172919;28;20040;-89
2023/09/15 01:29:57;;;;;;;3.75;1.52;;;;;;;;;;6153767;28;20056;-89
2023/09/15 01:33:01;;;;;;;5.43;2.00;;;;;;;;;;6130822;28;20063;-89
2023/09/15 01:36:03;;;;;;;4.60;1.90;;;;;;;;;;6130790;28;20051;-88
2023/09/15 01:39:06;;;;;;;3.08;2.03;;;;;;;;;;6123665;28;20062;-87
2023/09/15 01:42:11;;;;;;;5.05;2.15;;;;;;;;;;6139623;28;20536;-87
2023/09/15 01:45:13;;;;;;;3.97;1.83;;;;;;;;;;6120792;28;20051;-86
2023/09/15 01:48:16;;;;;;;2.42;1.80;;;;;;;;;;6131926;28;20334;-88
2023/09/15 01:51:21;;;;;;;6.10;2.05;;;;;;;;;;6126094;28;20248;-88
2023/09/15 01:54:23;;;;;;;4.38;2.60;;;;;;;;;;6137338;28;20051;-88
2023/09/15 01:57:25;;;;;;;4.40;2.08;;;;;;;;;;6130288;28;20059;-88
2023/09/15 02:00:37;;;;;;;5.57;2.05;;;;;;;;;;6126010;28;20049;-88
2023/09/15 02:03:45;;;;;;;10.55;2.80;;;;;;;;;;6142958;28;20051;-87
2023/09/15 02:06:47;;;;;;;6.82;2.83;;;;;;;;;;6140234;28;20337;-86
2023/09/15 02:09:49;;;;;;;8.65;3.63;;;;;;;;;;6149211;28;20078;-87
2023/09/15 02:12:53;;;;;;;10.40;3.05;;;;;;;;;;6137134;28;20058;-87
2023/09/15 02:15:55;;;;;;;5.30;2.58;;;;;;;;;;6120488;28;20147;-87
2023/09/15 02:18:57;;;;;;;9.40;3.70;;;;;;;;;;6130792;28;20098;-87
2023/09/15 02:21:59;;;;;;;6.57;2.83;;;;;;;;;;6131652;28;20054;-87
2023/09/15 02:25:02;;;;;;;8.35;3.28;;;;;;;;;;6129858;28;20097;-87
2023/09/15 02:28:05;;;;;;;5.68;2.58;;;;;;;;;;6119725;28;20414;-86
2023/09/15 02:31:08;;;;;;;5.03;2.55;;;;;;;;;;6134993;28;20581;-86
2023/09/15 02:34:15;;;;;;;6.30;2.70;;;;;;;;;;6116747;28;20058;-86
2023/09/15 02:37:17;;;;;;;4.85;2.20;;;;;;;;;;6131515;28;20082;-87
2023/09/15 02:40:21;;;;;;;4.97;2.45;;;;;;;;;;6136158;28;20517;-86
2023/09/15 02:43:23;;;;;;;5.35;2.83;;;;;;;;;;6144498;28;20046;-88
2023/09/15 02:46:26;;;;;;;7.40;2.72;;;;;;;;;;6157878;28;20036;-87
2023/09/15 02:49:32;;;;;;;9.60;3.08;;;;;;;;;;6141754;28;20054;-86
2023/09/15 02:52:34;;;;;;;4.38;2.30;;;;;;;;;;6133062;28;20039;-87
2023/09/15 02:55:37;;;;;;;;;;;;;;;;;;6116039;28;20465;-87
2023/09/15 02:58:46;;;;;;;5.22;2.20;;;;;;;;;;6126861;28;20246;-87
2023/09/15 03:01:50;;;;;;;12.40;2.53;;;;;;;;;;6122654;28;20040;-87
2023/09/15 03:04:55;;;;;;;6.10;3.25;;;;;;;;;;6148224;28;20087;-87
2023/09/15 03:07:57;;;;;;;7.53;3.50;;;;;;;;;;6149169;28;20047;-87
2023/09/15 03:10:59;;;;;;;5.18;2.72;;;;;;;;;;6125931;28;20095;-87
2023/09/15 03:14:01;;;;;;;3.95;2.35;;;;;;;;;;6126857;28;20055;-87
2023/09/15 03:17:05;;;;;;;3.97;2.03;;;;;;;;;;6147344;28;20065;-87
2023/09/15 03:20:13;;;;;;;3.97;2.40;;;;;;;;;;6119198;28;20055;-87
2023/09/15 03:23:16;;;;;;;5.72;2.55;;;;;;;;;;6148319;28;20058;-86
2023/09/15 03:26:18;;;;;;;4.78;2.65;;;;;;;;;;6117576;28;20047;-86
2023/09/15 03:29:24;;;;;;;7.93;3.10;;;;;;;;;;6143810;28;20154;-87
2023/09/15 03:32:27;;;;;;;5.25;3.00;;;;;;;;;;6110012;28;20050;-87
2023/09/15 03:35:29;;;;;;;5.32;2.80;;;;;;;;;;6140228;28;20094;-86
2023/09/15 03:38:31;;;;;;;8.25;2.60;;;;;;;;;;6108979;28;20040;-87
2023/09/15 03:41:35;;;;;;;6.30;2.80;;;;;;;;;;6140472;28;20394;-86
2023/09/15 03:44:39;;;;;;;4.05;2.30;;;;;;;;;;6104906;28;20059;-87
2023/09/15 03:47:41;;;;;;;4.45;2.35;;;;;;;;;;6144075;28;20416;-87
2023/09/15 03:50:43;;;;;;;3.75;2.08;;;;;;;;;;6142572;28;20050;-87
2023/09/15 03:53:45;;;;;;;3.72;2.03;;;;;;;;;;6132689;28;20492;-87
2023/09/15 03:56:47;;;;;;;4.10;2.25;;;;;;;;;;6140586;28;20048;-87
2023/09/15 03:59:49;;;;;;;3.15;1.83;;;;;;;;;;6107255;28;20101;-87
2023/09/15 04:02:54;;;;;;;4.22;2.50;;;;;;;;;;6140696;28;20036;-87
2023/09/15 04:05:58;;;;;;;5.05;2.60;;;;;;;;;;6128444;28;20502;-86
2023/09/15 04:09:00;;;;;;;3.70;2.00;;;;;;;;;;6143966;28;20051;-87
2023/09/15 04:12:04;;;;;;;3.85;2.20;;;;;;;;;;6113389;28;20051;-86
2023/09/15 04:15:06;;;;;;;7.70;3.00;;;;;;;;;;6113704;28;20138;-86
2023/09/15 04:18:08;;;;;;;6.40;2.35;;;;;;;;;;6143183;28;20047;-87
2023/09/15 04:21:11;;;;;;;5.28;2.83;;;;;;;;;;6117946;28;20036;-87
2023/09/15 04:24:15;;;;;;;5.50;2.70;;;;;;;;;;6129103;28;20050;-87
2023/09/15 04:27:20;;;;;;;5.10;2.60;;;;;;;;;;6109124;28;20141;-87
2023/09/15 04:30:22;;;;;;;5.10;2.35;;;;;;;;;;6131057;28;20095;-87
2023/09/15 04:33:29;;;;;;;5.47;2.42;;;;;;;;;;6141100;28;20093;-88
2023/09/15 04:36:31;;;;;;;5.23;2.63;;;;;;;;;;6138183;28;20324;-88
2023/09/15 04:39:33;;;;;;;5.28;2.80;;;;;;;;;;6124317;28;20687;-88
2023/09/15 04:42:40;;;;;;;4.60;2.70;;;;;;;;;;6109181;28;20047;-87
2023/09/15 04:45:43;;;;;;;5.97;2.15;;;;;;;;;;6123077;28;20047;-89
2023/09/15 04:48:45;;;;;;;4.05;2.25;;;;;;;;;;6137580;28;20059;-87
2023/09/15 04:51:47;;;;;;;6.45;2.60;;;;;;;;;;6120847;28;20057;-87
2023/09/15 04:54:52;;;;;;;4.53;2.53;;;;;;;;;;6128520;28;20097;-88
2023/09/15 04:57:54;;;;;;;4.97;2.33;;;;;;;;;;6123894;28;20587;-84
2023/09/15 05:00:59;;;;;;;4.85;2.65;;;;;;;;;;6119839;28;20383;-83
2023/09/15 05:04:05;;;;;;;4.20;2.55;;;;;;;;;;6128525;28;20079;-82
2023/09/15 05:07:07;;;;;;;5.07;2.42;;;;;;;;;;6120286;28;20058;-83
2023/09/15 05:10:09;;;;;;;5.20;2.70;;;;;;;;;;6113619;28;20550;-83
2023/09/15 05:13:11;;;;;;;3.65;2.20;;;;;;;;;;6131843;28;20052;-83
2023/09/15 05:16:16;;;;;;;8.25;2.88;;;;;;;;;;6114134;28;20047;-83
2023/09/15 05:19:18;;;;;;;4.55;2.40;;;;;;;;;;6127717;28;20055;-83
2023/09/15 05:22:20;;;;;;;4.90;2.50;;;;;;;;;;6119335;28;20780;-83
2023/09/15 05:25:23;;;;;;;6.22;3.13;;;;;;;;;;6148851;28;20486;-83
2023/09/15 05:28:25;;;;;;;4.85;2.55;;;;;;;;;;6127365;28;20047;-83
2023/09/15 05:31:27;;;;;;;4.97;2.22;;;;;;;;;;6144685;28;20047;-83
2023/09/15 05:34:29;;;;;;;4.38;2.40;;;;;;;;;;6152932;28;20095;-82
2023/09/15 05:37:33;;;;;;;2.40;1.75;;;;;;;;;;6149508;28;20043;-84
2023/09/15 05:40:35;;;;;;;3.53;2.10;;;;;;;;;;6145243;28;20031;-83
2023/09/15 05:43:39;;;;;;;3.08;2.05;;;;;;;;;;6159530;28;20039;-84
2023/09/15 05:46:42;;;;;;;4.72;2.40;;;;;;;;;;6131738;28;20477;-84
2023/09/15 05:49:45;;;;;;;4.05;2.08;;;;;;;;;;6114867;28;20133;-83
2023/09/15 05:52:46;;;;;;;3.78;2.10;;;;;;;;;;6127547;28;20065;-83
2023/09/15 05:55:48;;;;;;;4.38;1.95;;;;;;;;;;6131739;28;20733;-84
2023/09/15 05:58:50;;;;;;;4.68;2.10;;;;;;;;;;6134901;28;20395;-83
2023/09/15 06:01:52;;;;;;;3.58;1.85;;;;;;;;;;6144813;28;20051;-83
2023/09/15 06:04:54;;;;;;;4.40;2.08;;;;;;;;;;6130265;28;20047;-83
2023/09/15 06:07:55;;;;;;;4.85;2.17;;;;;;;;;;6149183;28;20533;-84
2023/09/15 06:10:58;;;;;;;4.07;1.85;;;;;;;;;;6136308;28;20055;-83
2023/09/15 06:13:59;;;;;;;4.13;2.28;;;;;;;;;;6149308;28;20553;-83
2023/09/15 06:17:02;;;;;;;4.43;1.90;;;;;;;;;;6136905;28;20051;-83
2023/09/15 06:20:04;;;;;;;;;;;;;;;;;;6116579;28;20047;-83
2023/09/15 06:23:06;;;;;;;5.00;2.00;;;;;;;;;;6128719;28;19930;-84
2023/09/15 06:26:08;;;;;;;3.83;2.08;;;;;;;;;;6142414;28;20043;-83
2023/09/15 06:29:12;;;;;;;3.50;1.80;;;;;;;;;;6131631;28;20174;-83
2023/09/15 06:32:14;;;;;;;4.28;2.42;;;;;;;;;;6146886;28;20090;-83
2023/09/15 06:35:17;;;;;;;;;;;;;;;;;;6134900;28;20054;-83
2023/09/15 06:38:19;;;;;;;3.38;2.00;;;;;;;;;;6136140;28;19927;-83
2023/09/15 06:41:21;;;;;;;4.18;2.13;;;;;;;;;;6110087;29;20048;-84
2023/09/15 06:44:23;;;;;;;6.93;2.70;;;;;;;;;;6131019;28;20058;-84
2023/09/15 06:47:25;;;;;;;5.47;2.75;;;;;;;;;;6115455;28;20050;-83
2023/09/15 06:50:27;;;;;;;7.05;2.60;;;;;;;;;;6133323;28;20050;-84
2023/09/15 06:53:29;;;;;;;7.57;3.30;;;;;;;;;;6128549;28;20055;-84
2023/09/15 06:56:30;;;;;;;4.10;2.20;;;;;;;;;;6120169;28;20056;-84
2023/09/15 06:59:32;;;;;;;8.32;2.90;;;;;;;;;;6097699;28;20044;-84
2023/09/15 07:02:34;;;;;;;7.43;2.92;;;;;;;;;;6124052;28;20039;-84
2023/09/15 07:05:38;;;;;;;7.47;3.08;;;;;;;;;;6107795;28;20131;-84
2023/09/15 07:08:41;;;;;;;4.72;2.70;;;;;;;;;;6115599;28;20055;-84
2023/09/15 07:11:43;;;;;;;5.18;2.42;;;;;;;;;;6110413;28;20070;-84
2023/09/15 07:14:46;;;;;;;6.03;2.63;;;;;;;;;;6124686;28;20498;-84
2023/09/15 07:17:50;;;;;;;5.32;2.20;;;;;;;;;;6102659;28;20510;-84
2023/09/15 07:20:52;;;;;;;7.45;2.65;;;;;;;;;;6105960;28;20055;-85
2023/09/15 07:23:55;;;;;;;5.90;3.03;;;;;;;;;;6120645;28;20064;-84
2023/09/15 07:26:57;;;;;;;5.22;2.58;;;;;;;;;;6119574;28;20055;-84
2023/09/15 07:29:59;;;;;;;4.05;2.28;;;;;;;;;;6131815;28;20426;-84
2023/09/15 07:33:01;;;;;;;3.85;2.22;;;;;;;;;;6126539;28;20051;-85
2023/09/15 07:36:06;;;;;;;4.63;2.15;;;;;;;;;;6091306;29;20073;-84
2023/09/15 07:39:08;;;;;;;5.55;2.15;;;;;;;;;;6105841;28;20048;-85
2023/09/15 07:42:09;;;;;;;6.30;2.88;;;;;;;;;;6124440;28;20051;-84
2023/09/15 07:45:12;;;;;;;5.25;2.05;;;;;;;;;;6127858;28;20091;-84
2023/09/15 07:48:17;;;;;;;5.65;2.40;;;;;;;;;;6096342;28;20070;-85
2023/09/15 07:51:19;;;;;;;5.07;2.30;;;;;;;;;;6130538;28;20051;-85
2023/09/15 07:54:22;;;;;;;5.30;2.83;;;;;;;;;;6116742;28;20051;-85
2023/09/15 07:57:24;;;;;;;5.40;2.53;;;;;;;;;;6108233;28;20182;-84
2023/09/15 08:00:26;;;;;;;4.53;2.38;;;;;;;;;;6102873;29;20043;-87
2023/09/15 08:03:28;;;;;;;7.00;2.67;;;;;;;;;;6132675;28;20040;-85
2023/09/15 08:06:30;;;;;;;4.95;2.50;;;;;;;;;;6124212;28;20879;-86
2023/09/15 08:09:32;;;;;;;4.88;2.55;;;;;;;;;;6066170;28;20054;-86
2023/09/15 08:12:34;;;;;;;7.03;3.00;;;;;;;;;;6111508;28;20525;-85
2023/09/15 08:15:40;;;;;;;6.35;2.17;;;;;;;;;;6107522;29;20052;-85
2023/09/15 08:18:42;;;;;;;4.47;2.28;;;;;;;;;;6103284;29;20063;-85
2023/09/15 08:21:44;;;;;;;4.93;2.42;;;;;;;;;;6110633;28;20040;-86
2023/09/15 08:24:48;;;;;;;4.50;2.58;;;;;;;;;;6103342;29;20119;-85
2023/09/15 08:27:50;;;;;;;7.13;2.58;;;;;;;;;;6106546;29;20674;-84
2023/09/15 08:30:52;;;;;;;6.10;2.70;;;;;;;;;;6139908;28;20104;-83
2023/09/15 08:33:54;;;;;;;8.32;3.20;;;;;;;;;;6132014;28;20130;-86
2023/09/15 08:36:56;;;;;;;5.00;2.90;;;;;;;;;;6143299;28;20063;-86
2023/09/15 08:39:58;;;;;;;4.57;2.75;;;;;;;;;;6110836;28;20047;-85
2023/09/15 08:43:00;;;;;;;5.07;3.50;;;;;;;;;;6108581;28;20470;-86
2023/09/15 08:46:03;;;;;;;5.82;3.50;;;;;;;;;;6107713;28;20069;-86
2023/09/15 08:49:07;;;;;;;4.35;3.10;;;;;;;;;;6099150;29;20422;-86
2023/09/15 08:52:10;;;;;;;6.70;3.70;;;;;;;;;;6101787;28;20517;-86
2023/09/15 08:55:13;;;;;;;5.72;3.70;;;;;;;;;;6092437;29;20511;-85
2023/09/15 08:58:14;;;;;;;7.73;3.43;;;;;;;;;;6121841;28;20094;-87
2023/09/15 09:01:18;;;;;;;6.70;3.60;;;;;;;;;;6123028;28;20083;-86
2023/09/15 09:04:22;;;;;;;4.60;3.75;;;;;;;;;;6113618;28;20052;-87
2023/09/15 09:07:25;;;;;;;6.60;3.70;;;;;;;;;;6115686;28;20599;-86
2023/09/15 09:10:27;;;;;;;;;;;;;;;;;;6130214;28;20047;-87
2023/09/15 09:13:29;;;;;;;6.53;3.90;;;;;;;;;;6114666;28;19926;-86
2023/09/15 09:16:49;;;;;;;7.35;4.13;;;;;;;;;;6122017;28;20074;-86
2023/09/15 09:19:51;;;;;;;4.88;3.83;;;;;;;;;;6094166;29;20130;-86
2023/09/15 09:22:53;;;;;;;4.45;3.67;;;;;;;;;;6110171;28;20055;-86
2023/09/15 09:25:58;;;;;;;4.88;4.00;;;;;;;;;;6106962;28;20055;-86
2023/09/15 09:29:01;;;;;;;8.18;4.40;;;;;;;;;;6128822;28;20058;-86
2023/09/15 09:32:05;;;;;;;6.57;4.03;;;;;;;;;;6125103;28;20130;-85
2023/09/15 09:35:09;;;;;;;5.20;3.92;;;;;;;;;;6117202;28;20062;-86
2023/09/15 09:38:13;;;;;;;5.78;4.18;;;;;;;;;;6138912;28;20043;-87
2023/09/15 09:41:20;;;;;;;6.22;3.67;;;;;;;;;;6130858;28;20074;-86
2023/09/15 09:44:22;;;;;;;4.68;3.70;;;;;;;;;;6101298;28;20503;-88
2023/09/15 09:47:25;;;;;;;5.85;4.38;;;;;;;;;;6101645;28;20051;-88
2023/09/15 09:50:28;;;;;;;6.55;3.95;;;;;;;;;;6126160;28;20054;-87
2023/09/15 09:53:32;;;;;;;4.40;3.55;;;;;;;;;;6100964;28;20055;-88
2023/09/15 09:56:34;;;;;;;6.25;3.95;;;;;;;;;;6123899;28;20135;-88
2023/09/15 09:59:37;;;;;;;5.60;3.90;;;;;;;;;;6122200;28;20151;-87
2023/09/15 10:02:40;;;;;;;5.13;3.40;;;;;;;;;;6131611;28;20043;-87
2023/09/15 10:05:42;;;;;;;4.55;3.45;;;;;;;;;;6103500;28;20105;-87
2023/09/15 10:08:46;;;;;;;4.35;3.88;;;;;;;;;;6118226;28;20513;-87
2023/09/15 10:11:49;;;;;;;4.75;3.72;;;;;;;;;;6115604;28;20102;-86
2023/09/15 10:14:51;;;;;;;3.83;3.50;;;;;;;;;;6131921;28;20047;-87
2023/09/15 10:17:53;;;;;;;4.43;3.92;;;;;;;;;;6127742;28;20090;-87
2023/09/15 10:20:56;;;;;;;6.68;3.60;;;;;;;;;;6129906;28;20046;-88
2023/09/15 10:24:04;;;;;;;4.75;3.60;;;;;;;;;;6119652;28;20109;-87
2023/09/15 10:27:06;;;;;;;6.72;3.70;;;;;;;;;;6123079;28;20043;-87
2023/09/15 10:30:10;;;;;;;3.88;3.47;;;;;;;;;;6119681;28;20502;-87
2023/09/15 10:33:13;;;;;;;4.03;3.63;;;;;;;;;;6139664;28;20095;-87
2023/09/15 10:36:18;;;;;;;3.95;3.33;;;;;;;;;;6142139;28;20054;-88
2023/09/15 10:39:20;;;;;;;5.28;3.47;;;;;;;;;;6124772;28;20055;-88
2023/09/15 10:42:22;;;;;;;5.18;3.25;;;;;;;;;;6122168;28;20044;-87
2023/09/15 10:45:24;;;;;;;4.13;3.60;;;;;;;;;;6129867;28;20047;-88
2023/09/15 10:48:46;;;;;;;5.47;3.58;;;;;;;;;;6116983;28;20511;-87
2023/09/15 10:51:57;;;;;;;4.93;3.53;;;;;;;;;;6110563;29;20052;-88
2023/09/15 10:54:59;;;;;;;4.03;3.38;;;;;;;;;;6127847;28;20047;-88
2023/09/15 10:58:04;;;;;;;4.03;3.22;;;;;;;;;;6131167;28;20050;-87
2023/09/15 11:01:09;;;;;;;4.53;3.70;;;;;;;;;;6131118;28;20043;-87
2023/09/15 11:04:22;;;;;;;4.60;3.53;;;;;;;;;;6129467;28;20514;-87
2023/09/15 11:07:25;;;;;;;5.82;3.60;;;;;;;;;;6102969;28;20049;-87
2023/09/15 11:10:28;;;;;;;4.88;3.17;;;;;;;;;;6144946;28;20379;-88
2023/09/15 11:13:32;;;;;;;4.38;3.20;;;;;;;;;;6116921;28;20054;-87
2023/09/15 11:16:34;;;;;;;5.90;3.92;;;;;;;;;;6133482;28;20053;-87
2023/09/15 11:19:39;;;;;;;3.67;3.30;;;;;;;;;;6114320;28;20051;-88
2023/09/15 11:22:41;;;;;;;6.05;3.35;;;;;;;;;;6139556;28;20134;-88
2023/09/15 11:25:45;;;;;;;4.07;3.13;;;;;;;;;;6130059;28;20047;-88
2023/09/15 11:28:47;;;;;;;3.53;2.85;;;;;;;;;;6148193;28;20053;-89
2023/09/15 11:31:51;;;;;;;3.50;2.97;;;;;;;;;;6145949;28;20059;-89
2023/09/15 11:34:56;;;;;;;5.03;3.30;;;;;;;;;;6135385;28;20065;-89
2023/09/15 11:37:59;;;;;;;3.88;2.70;;;;;;;;;;6105907;28;20047;-89
2023/09/15 11:41:12;;;;;;;3.20;2.90;;;;;;;;;;6080837;28;20066;-87
2023/09/15 11:44:20;;;;;;;3.22;2.72;;;;;;;;;;6092290;28;20043;-88
2023/09/15 11:47:31;;;;;;;3.88;2.60;;;;;;;;;;6103570;28;20139;-88
2023/09/15 11:50:40;;;;;;;3.05;2.60;;;;;;;;;;6107358;28;20138;-89
2023/09/15 11:53:47;;;;;;;3.78;2.60;;;;;;;;;;6116310;28;20050;-88
2023/09/15 11:56:52;;;;;;;2.88;1.98;;;;;;;;;;6102006;29;20055;-88
2023/09/15 11:59:55;;;;;;;3.63;2.72;;;;;;;;;;6112457;28;20419;-88
2023/09/15 12:02:58;;;;;;;3.50;2.50;;;;;;;;;;6117159;28;20117;-88
2023/09/15 12:06:01;;;;;;;3.22;2.50;;;;;;;;;;6120649;28;20051;-89
2023/09/15 12:09:04;;;;;;;3.47;2.60;;;;;;;;;;6107134;28;20657;-88
2023/09/15 12:12:07;;;;;;;3.25;2.40;;;;;;;;;;6102549;28;20103;-88
2023/09/15 12:15:09;;;;;;;1.90;1.70;;;;;;;;;;6125169;28;20053;-88
2023/09/15 12:18:13;;;;;;;2.05;1.85;;;;;;;;;;6137828;28;20038;-89
2023/09/15 12:21:15;;;;;;;2.85;2.05;;;;;;;;;;6116128;28;20055;-88
2023/09/15 12:24:20;;;;;;;3.03;2.15;;;;;;;;;;6121872;28;20525;-88
2023/09/15 12:27:22;;;;;;;2.55;1.80;;;;;;;;;;6152293;28;20532;-90
2023/09/15 12:30:25;;;;;;;3.20;2.38;;;;;;;;;;6111381;28;20039;-88
2023/09/15 12:33:29;;;;;;;4.20;2.80;;;;;;;;;;6131598;28;20090;-90
2023/09/15 12:36:33;;;;;;;3.47;2.40;;;;;;;;;;6133046;28;20047;-88
2023/09/15 12:39:36;;;;;;;3.35;2.65;;;;;;;;;;6124704;28;20584;-88
2023/09/15 12:42:47;;;;;;;2.70;2.00;;;;;;;;;;6115566;28;20055;-91
2023/09/15 12:45:50;;;;;;;1.80;1.70;;;;;;;;;;6098687;28;20445;-89
2023/09/15 12:48:52;;;;;;;3.13;1.65;;;;;;;;;;6083670;28;20039;-89
2023/09/15 12:51:57;;;;;;;3.20;2.08;;;;;;;;;;6107391;28;20063;-89
2023/09/15 12:55:01;;;;;;;3.95;2.50;;;;;;;;;;6139325;28;20047;-89
2023/09/15 12:58:08;;;;;;;4.40;2.10;;;;;;;;;;6120718;28;20600;-90
2023/09/15 13:01:12;;;;;;;3.47;2.30;;;;;;;;;;6093583;28;20058;-90
2023/09/15 13:04:14;;;;;;;;;;;;;;;;;;6120154;28;20588;-87
2023/09/15 13:07:21;;;;;;;2.78;2.30;;;;;;;;;;6148126;28;19920;-90
2023/09/15 13:10:23;;;;;;;2.60;2.00;;;;;;;;;;6137114;28;20043;-90
2023/09/15 13:13:25;;;;;;;3.95;2.40;;;;;;;;;;6133209;28;20126;-89
2023/09/15 13:16:27;;;;;;;2.85;2.25;;;;;;;;;;6106440;28;20497;-89
2023/09/15 13:19:29;;;;;;;3.15;2.65;;;;;;;;;;6114828;28;20127;-90
2023/09/15 13:22:31;;;;;;;3.28;2.40;;;;;;;;;;6130486;28;20047;-89
2023/09/15 13:25:40;;;;;;;5.28;2.60;;;;;;;;;;6113265;28;20070;-89
2023/09/15 13:28:44;;;;;;;3.90;2.50;;;;;;;;;;6109725;28;20047;-89
2023/09/15 13:31:48;;;;;;;3.22;2.58;;;;;;;;;;6109075;28;20520;-89
2023/09/15 13:34:50;;;;;;;3.00;2.47;;;;;;;;;;6124702;28;20203;-90
2023/09/15 13:37:53;;;;;;;3.33;2.25;;;;;;;;;;6121051;28;20140;-91
2023/09/15 13:40:54;;;;;;;;;;;;;;;;;;6137056;28;20048;-89
2023/09/15 13:43:57;;;;;;;3.90;2.33;;;;;;;;;;6111254;28;20411;-90
2023/09/15 13:46:59;;;;;;;2.50;2.28;;;;;;;;;;6112059;28;20043;-90
2023/09/15 13:50:05;;;;;;;2.95;2.13;;;;;;;;;;6118158;28;20043;-91
2023/09/15 13:53:12;;;;;;;4.53;2.40;;;;;;;;;;6139671;28;20046;-89
2023/09/15 13:56:16;;;;;;;25.27;7.45;;;;;;;;;;6103010;28;20082;-90
2023/09/15 13:59:18;;;;;;;29.25;8.98;;;;;;;;;;6139314;28;20271;-90
2023/09/15 14:02:19;;;;;;;19.55;6.82;;;;;;;;;;6113002;28;20091;-90
2023/09/15 14:05:22;;;;;;;4.57;2.20;;;;;;;;;;6123988;28;20075;-89
2023/09/15 14:08:24;;;;;;;3.63;2.22;;;;;;;;;;6131218;28;20042;-90
2023/09/15 14:11:26;;;;;;;;;;;;;;;;;;6143109;28;20301;-90
2023/09/15 14:14:30;;;;;;;3.60;1.93;;;;;;;;;;6144817;28;19926;-90
2023/09/15 14:17:33;;;;;;;4.32;2.20;;;;;;;;;;6150066;28;20178;-90
2023/09/15 14:20:35;;;;;;;3.65;2.00;;;;;;;;;;6153712;28;20042;-89
2023/09/15 14:23:36;;;;;;;3.13;2.30;;;;;;;;;;6163496;28;20047;-89
2023/09/15 14:26:39;;;;;;;2.88;2.10;;;;;;;;;;6148878;28;20050;-93
2023/09/15 14:29:44;;;;;;;2.33;2.03;;;;;;;;;;6106637;28;20091;-91
2023/09/15 14:32:46;;;;;;;2.50;2.30;;;;;;;;;;6112432;28;20204;-92
2023/09/15 14:35:51;;;;;;;2.42;1.90;;;;;;;;;;6133889;28;20391;-90
2023/09/15 14:38:53;;;;;;;2.20;2.00;;;;;;;;;;6107480;28;20569;-89
2023/09/15 14:41:55;;;;;;;3.70;2.35;;;;;;;;;;6148626;28;20057;-90
2023/09/15 14:44:58;;;;;;;3.28;2.13;;;;;;;;;;6119684;28;20525;-91
2023/09/15 14:48:03;;;;;;;;;;;;;;;;;;6105417;28;20197;-90
2023/09/15 14:51:09;;;;;;;2.92;2.10;;;;;;;;;;6116349;28;19928;-90
2023/09/15 14:54:11;;;;;;;2.83;2.00;;;;;;;;;;6154150;28;20130;-89
2023/09/15 14:57:15;;;;;;;2.80;2.28;;;;;;;;;;6116618;28;20042;-90
2023/09/15 15:00:19;;;;;;;2.80;2.58;;;;;;;;;;6131811;28;20050;-90
2023/09/15 15:03:21;;;;;;;3.03;2.00;;;;;;;;;;6133641;28;20066;-90
2023/09/15 15:06:23;;;;;;;;;;;;;;;;;;6120444;28;20047;-91
2023/09/15 15:09:25;;;;;;;2.17;1.90;;;;;;;;;;6101194;28;20237;-91
2023/09/15 15:12:27;;;;;;;3.67;2.30;;;;;;;;;;6109770;28;20433;-90
2023/09/15 15:15:42;;;;;;;3.22;2.00;;;;;;;;;;6110572;28;20502;-91
2023/09/15 15:18:45;;;;;;;2.03;1.83;;;;;;;;;;6096109;28;20051;-88
2023/09/15 15:21:48;;;;;;;2.38;1.80;;;;;;;;;;6117427;28;20055;-90
2023/09/15 15:24:53;;;;;;;3.13;1.90;;;;;;;;;;6109912;28;20516;-90
2023/09/15 15:27:58;;;;;;;3.03;1.88;;;;;;;;;;6112689;28;20044;-90
2023/09/15 15:31:01;;;;;;;4.55;2.50;;;;;;;;;;6132402;28;20410;-90
2023/09/15 15:34:05;;;;;;;;;;;;;;;;;;6123259;28;20046;-89
2023/09/15 15:37:07;;;;;;;4.57;2.05;;;;;;;;;;6118372;28;19933;-89
2023/09/15 15:40:10;;;;;;;2.83;2.25;;;;;;;;;;6108366;28;20055;-89
2023/09/15 15:43:13;;;;;;;2.35;1.83;;;;;;;;;;6136027;28;20400;-90
2023/09/15 15:46:15;;;;;;;2.38;2.17;;;;;;;;;;6167031;28;20050;-87
2023/09/15 15:49:17;;;;;;;3.03;2.00;;;;;;;;;;6159177;28;20130;-89
2023/09/15 15:52:19;;;;;;;3.75;1.95;;;;;;;;;;6148016;28;20039;-89
2023/09/15 15:55:23;;;;;;;2.20;1.90;;;;;;;;;;6143982;28;20134;-91
2023/09/15 15:58:26;;;;;;;2.92;1.85;;;;;;;;;;6125948;28;20043;-88
2023/09/15 16:01:28;;;;;;;6.45;2.50;;;;;;;;;;6121891;28;20054;-89
2023/09/15 16:04:30;;;;;;;2.15;1.85;;;;;;;;;;6138102;28;20498;-88
2023/09/15 16:07:32;;;;;;;2.38;1.90;;;;;;;;;;6128016;28;20461;-89
2023/09/15 16:10:40;;;;;;;2.35;1.90;;;;;;;;;;6104370;28;20055;-88
2023/09/15 16:13:44;;;;;;;2.78;1.98;;;;;;;;;;6137222;28;20058;-89
2023/09/15 16:16:46;;;;;;;2.33;1.85;;;;;;;;;;6131940;28;20047;-89
2023/09/15 16:19:48;;;;;;;2.05;1.83;;;;;;;;;;6131684;28;20043;-91
2023/09/15 16:22:50;;;;;;;2.10;1.90;;;;;;;;;;6126110;28;20094;-88
2023/09/15 16:25:52;;;;;;;2.90;1.73;;;;;;;;;;6133356;28;20062;-87
2023/09/15 16:28:54;;;;;;;2.45;1.80;;;;;;;;;;6098364;28;20051;-88
2023/09/15 16:31:59;;;;;;;1.88;1.58;;;;;;;;;;6094429;28;20548;-88
2023/09/15 16:35:05;;;;;;;2.45;1.65;;;;;;;;;;6100812;28;20050;-89
2023/09/15 16:38:11;;;;;;;2.78;1.95;;;;;;;;;;6113507;28;20505;-91
2023/09/15 16:41:22;;;;;;;2.92;1.75;;;;;;;;;;6078676;28;20443;-90
2023/09/15 16:44:30;;;;;;;2.45;2.10;;;;;;;;;;6118956;28;20051;-88
2023/09/15 16:47:31;;;;;;;2.72;2.00;;;;;;;;;;6123607;28;20039;-88
2023/09/15 16:50:34;;;;;;;2.97;1.90;;;;;;;;;;6107604;28;20417;-88
2023/09/15 16:53:36;;;;;;;2.38;1.92;;;;;;;;;;6113767;28;20039;-87
2023/09/15 16:56:38;;;;;;;3.27;2.77;;;;;;;;;;6143326;28;20051;-87
2023/09/15 16:59:40;;;;;;;2.73;2.37;;;;;;;;;;6128725;28;20546;-86
2023/09/15 17:02:42;;;;;;;2.70;2.22;;;;;;;;;;6136017;28;20067;-86
2023/09/15 17:05:44;;;;;;;4.65;2.58;;;;;;;;;;6144740;28;20047;-87
2023/09/15 17:08:45;;;;;;;3.10;2.70;;;;;;;;;;6107289;28;20247;-86
2023/09/15 17:11:49;;;;;;;3.53;2.40;;;;;;;;;;6124476;28;20174;-86
2023/09/15 17:14:51;;;;;;;2.25;2.05;;;;;;;;;;6141398;28;20084;-86
2023/09/15 17:17:53;;;;;;;2.47;1.90;;;;;;;;;;6137026;28;20111;-86
2023/09/15 17:20:55;;;;;;;4.90;2.13;;;;;;;;;;6149433;28;20099;-84
2023/09/15 17:23:57;;;;;;;4.13;2.37;;;;;;;;;;6164816;28;20407;-87
2023/09/15 17:27:00;;;;;;;3.37;2.37;;;;;;;;;;6139470;28;20542;-87
2023/09/15 17:30:01;;;;;;;;;;;;;;;;;;6126876;28;20051;-86
2023/09/15 17:33:03;;;;;;;3.50;2.30;;;;;;;;;;6127212;28;20385;-86
2023/09/15 17:36:05;;;;;;;2.75;2.22;;;;;;;;;;6145182;28;20163;-86
2023/09/15 17:39:10;;;;;;;3.08;2.30;;;;;;;;;;6146812;28;20031;-84
2023/09/15 17:42:12;;;;;;;;;;;;;;;;;;6122637;28;20051;-87
2023/09/15 17:45:19;;;;;;;4.38;2.40;;;;;;;;;;6146020;28;19933;-88
2023/09/15 17:48:22;;;;;;;4.85;2.50;;;;;;;;;;6118172;28;20533;-88
2023/09/15 17:51:25;;;;;;;3.78;2.00;;;;;;;;;;6132053;28;20506;-88
2023/09/15 17:54:27;;;;;;;;;;;;;;;;;;6150684;28;20048;-88
2023/09/15 17:57:29;;;;;;;4.18;2.08;;;;;;;;;;6122868;28;19981;-87
2023/09/15 18:00:31;;;;;;;4.30;2.70;;;;;;;;;;6132460;28;20057;-88
2023/09/15 18:03:37;;;;;;;2.53;2.10;;;;;;;;;;6124305;28;20054;-88
2023/09/15 18:06:40;;;;;;;4.55;2.47;;;;;;;;;;6124796;28;20043;-87
2023/09/15 18:09:44;;;;;;;4.00;2.42;;;;;;;;;;6144169;28;20043;-87
2023/09/15 18:12:50;;;;;;;6.03;2.47;;;;;;;;;;6116923;28;20044;-87
2023/09/15 18:15:52;;;;;;;4.20;2.63;;;;;;;;;;6122188;28;20087;-89
2023/09/15 18:18:54;;;;;;;3.40;2.55;;;;;;;;;;6131978;28;20050;-88
2023/09/15 18:21:56;;;;;;;4.80;2.60;;;;;;;;;;6144315;28;20050;-89
2023/09/15 18:25:05;;;;;;;3.77;2.43;;;;;;;;;;6164255;28;20023;-91